sensor_id;sensor_type;location;lat;lon;timestamp;P1;durP1;ratioP1;P2;durP2;ratioP2
37791;SDS011;29527;55.766;37.570;2022-12-29T00:01:49;3.17;;;1.75;;
37791;SDS011;29527;55.766;37.570;2022-12-29T00:04:14;4.93;;;1.60;;
37791;SDS011;29527;55.766;37.570;2022-12-29T00:06:41;3.33;;;1.63;;
37791;SDS011;29527;55.766;37.570;2022-12-29T00:09:08;5.70;;;1.75;;
37791;SDS011;29527;55.766;37.570;2022-12-29T00:11:35;7.32;;;2.22;;
37791;SDS011;29527;55.766;37.570;2022-12-29T00:14:00;7.55;;;1.67;;
37791;SDS011;29527;55.766;37.570;2022-12-29T00:16:44;2.65;;;1.58;;
37791;SDS011;29527;55.766;37.570;2022-12-29T00:19:11;6.47;;;1.70;;
37791;SDS011;29527;55.766;37.570;2022-12-29T00:21:56;5.65;;;1.60;;
37791;SDS011;29527;55.766;37.570;2022-12-29T00:27:26;4.07;;;1.48;;
37791;SDS011;29527;55.766;37.570;2022-12-29T00:30:12;3.65;;;1.38;;
37791;SDS011;29527;55.766;37.570;2022-12-29T00:32:58;5.68;;;1.20;;
37791;SDS011;29527;55.766;37.570;2022-12-29T00:35:43;2.42;;;1.15;;
37791;SDS011;29527;55.766;37.570;2022-12-29T00:38:15;5.80;;;1.10;;
37791;SDS011;29527;55.766;37.570;2022-12-29T00:40:59;2.40;;;1.10;;
37791;SDS011;29527;55.766;37.570;2022-12-29T00:43:43;3.97;;;1.20;;
37791;SDS011;29527;55.766;37.570;2022-12-29T00:46:26;4.55;;;1.40;;
37791;SDS011;29527;55.766;37.570;2022-12-29T00:48:52;7.53;;;1.20;;
37791;SDS011;29527;55.766;37.570;2022-12-29T00:51:35;5.88;;;1.27;;
37791;SDS011;29527;55.766;37.570;2022-12-29T00:54:01;4.25;;;1.13;;
37791;SDS011;29527;55.766;37.570;2022-12-29T00:56:26;4.90;;;0.98;;
37791;SDS011;29527;55.766;37.570;2022-12-29T00:58:52;4.72;;;1.20;;
37791;SDS011;29527;55.766;37.570;2022-12-29T01:01:17;6.93;;;1.35;;
37791;SDS011;29527;55.766;37.570;2022-12-29T01:03:43;4.68;;;1.33;;
37791;SDS011;29527;55.766;37.570;2022-12-29T01:06:10;3.85;;;1.58;;
37791;SDS011;29527;55.766;37.570;2022-12-29T01:08:36;3.75;;;1.40;;
37791;SDS011;29527;55.766;37.570;2022-12-29T01:11:03;4.40;;;1.27;;
37791;SDS011;29527;55.766;37.570;2022-12-29T01:13:30;3.92;;;1.30;;
37791;SDS011;29527;55.766;37.570;2022-12-29T01:15:56;5.80;;;1.27;;
37791;SDS011;29527;55.766;37.570;2022-12-29T01:18:22;3.28;;;1.20;;
37791;SDS011;29527;55.766;37.570;2022-12-29T01:20:49;4.82;;;1.70;;
37791;SDS011;29527;55.766;37.570;2022-12-29T01:23:15;4.68;;;1.20;;
37791;SDS011;29527;55.766;37.570;2022-12-29T01:25:40;4.05;;;1.25;;
37791;SDS011;29527;55.766;37.570;2022-12-29T01:28:06;4.00;;;1.00;;
37791;SDS011;29527;55.766;37.570;2022-12-29T01:30:36;6.20;;;1.10;;
37791;SDS011;29527;55.766;37.570;2022-12-29T01:33:01;3.38;;;0.93;;
37791;SDS011;29527;55.766;37.570;2022-12-29T01:35:27;3.08;;;1.00;;
37791;SDS011;29527;55.766;37.570;2022-12-29T01:37:53;4.93;;;1.23;;
37791;SDS011;29527;55.766;37.570;2022-12-29T01:40:18;6.53;;;1.30;;
37791;SDS011;29527;55.766;37.570;2022-12-29T01:42:44;5.53;;;1.15;;
37791;SDS011;29527;55.766;37.570;2022-12-29T01:45:10;3.70;;;1.20;;
37791;SDS011;29527;55.766;37.570;2022-12-29T01:47:41;6.05;;;1.38;;
37791;SDS011;29527;55.766;37.570;2022-12-29T01:50:20;5.97;;;1.30;;
37791;SDS011;29527;55.766;37.570;2022-12-29T01:52:58;6.50;;;1.48;;
37791;SDS011;29527;55.766;37.570;2022-12-29T01:55:32;5.35;;;1.50;;
37791;SDS011;29527;55.766;37.570;2022-12-29T01:58:07;6.40;;;1.58;;
37791;SDS011;29527;55.766;37.570;2022-12-29T02:00:37;6.50;;;1.67;;
37791;SDS011;29527;55.766;37.570;2022-12-29T02:03:02;3.70;;;1.30;;
37791;SDS011;29527;55.766;37.570;2022-12-29T02:05:33;8.82;;;1.60;;
37791;SDS011;29527;55.766;37.570;2022-12-29T02:08:05;8.68;;;1.50;;
37791;SDS011;29527;55.766;37.570;2022-12-29T02:10:31;5.57;;;1.30;;
37791;SDS011;29527;55.766;37.570;2022-12-29T02:12:59;4.93;;;1.30;;
37791;SDS011;29527;55.766;37.570;2022-12-29T02:18:19;6.22;;;1.45;;
37791;SDS011;29527;55.766;37.570;2022-12-29T02:32:15;6.05;;;1.55;;
37791;SDS011;29527;55.766;37.570;2022-12-29T02:42:48;6.40;;;1.48;;
37791;SDS011;29527;55.766;37.570;2022-12-29T02:48:13;5.43;;;1.33;;
37791;SDS011;29527;55.766;37.570;2022-12-29T02:51:00;4.28;;;1.23;;
37791;SDS011;29527;55.766;37.570;2022-12-29T02:53:28;5.32;;;1.88;;
37791;SDS011;29527;55.766;37.570;2022-12-29T02:56:15;5.57;;;1.50;;
37791;SDS011;29527;55.766;37.570;2022-12-29T02:58:41;10.27;;;1.67;;
37791;SDS011;29527;55.766;37.570;2022-12-29T03:12:11;4.27;;;1.40;;
37791;SDS011;29527;55.766;37.570;2022-12-29T03:20:31;4.63;;;1.20;;
37791;SDS011;29527;55.766;37.570;2022-12-29T03:23:04;8.60;;;1.23;;
37791;SDS011;29527;55.766;37.570;2022-12-29T03:25:39;4.63;;;1.30;;
37791;SDS011;29527;55.766;37.570;2022-12-29T03:28:10;6.57;;;1.50;;
37791;SDS011;29527;55.766;37.570;2022-12-29T03:30:40;4.70;;;1.45;;
37791;SDS011;29527;55.766;37.570;2022-12-29T03:33:07;5.80;;;1.20;;
37791;SDS011;29527;55.766;37.570;2022-12-29T03:35:37;6.32;;;1.70;;
37791;SDS011;29527;55.766;37.570;2022-12-29T03:40:55;6.40;;;1.35;;
37791;SDS011;29527;55.766;37.570;2022-12-29T03:43:23;5.25;;;1.77;;
37791;SDS011;29527;55.766;37.570;2022-12-29T03:45:50;4.93;;;1.83;;
37791;SDS011;29527;55.766;37.570;2022-12-29T03:48:15;5.95;;;1.42;;
37791;SDS011;29527;55.766;37.570;2022-12-29T03:50:41;7.93;;;1.80;;
37791;SDS011;29527;55.766;37.570;2022-12-29T03:53:06;6.47;;;2.00;;
37791;SDS011;29527;55.766;37.570;2022-12-29T03:55:32;7.00;;;1.95;;
37791;SDS011;29527;55.766;37.570;2022-12-29T03:57:57;5.47;;;1.75;;
37791;SDS011;29527;55.766;37.570;2022-12-29T04:00:23;4.97;;;1.85;;
37791;SDS011;29527;55.766;37.570;2022-12-29T04:02:48;7.20;;;1.52;;
37791;SDS011;29527;55.766;37.570;2022-12-29T04:05:14;8.00;;;2.15;;
37791;SDS011;29527;55.766;37.570;2022-12-29T04:07:40;8.93;;;2.17;;
37791;SDS011;29527;55.766;37.570;2022-12-29T04:10:05;7.47;;;2.10;;
37791;SDS011;29527;55.766;37.570;2022-12-29T04:12:31;7.70;;;1.88;;
37791;SDS011;29527;55.766;37.570;2022-12-29T04:14:56;10.43;;;1.90;;
37791;SDS011;29527;55.766;37.570;2022-12-29T04:17:22;7.70;;;2.00;;
37791;SDS011;29527;55.766;37.570;2022-12-29T04:19:48;5.13;;;1.73;;
37791;SDS011;29527;55.766;37.570;2022-12-29T04:22:13;7.53;;;2.10;;
37791;SDS011;29527;55.766;37.570;2022-12-29T04:24:39;6.13;;;1.77;;
37791;SDS011;29527;55.766;37.570;2022-12-29T04:27:04;8.27;;;2.28;;
37791;SDS011;29527;55.766;37.570;2022-12-29T04:29:29;6.47;;;2.25;;
37791;SDS011;29527;55.766;37.570;2022-12-29T04:31:55;7.28;;;2.38;;
37791;SDS011;29527;55.766;37.570;2022-12-29T04:34:20;6.97;;;1.88;;
37791;SDS011;29527;55.766;37.570;2022-12-29T04:36:46;7.57;;;1.95;;
37791;SDS011;29527;55.766;37.570;2022-12-29T04:39:12;9.63;;;2.28;;
37791;SDS011;29527;55.766;37.570;2022-12-29T04:41:37;10.75;;;2.20;;
37791;SDS011;29527;55.766;37.570;2022-12-29T04:44:03;7.35;;;2.20;;
37791;SDS011;29527;55.766;37.570;2022-12-29T04:46:28;7.20;;;2.55;;
37791;SDS011;29527;55.766;37.570;2022-12-29T04:48:54;7.93;;;2.10;;
37791;SDS011;29527;55.766;37.570;2022-12-29T04:51:19;8.32;;;2.30;;
37791;SDS011;29527;55.766;37.570;2022-12-29T04:53:44;8.13;;;2.30;;
37791;SDS011;29527;55.766;37.570;2022-12-29T04:56:10;9.88;;;2.40;;
37791;SDS011;29527;55.766;37.570;2022-12-29T04:58:35;7.68;;;2.50;;
37791;SDS011;29527;55.766;37.570;2022-12-29T05:01:01;5.65;;;1.88;;
37791;SDS011;29527;55.766;37.570;2022-12-29T05:03:27;9.23;;;2.60;;
37791;SDS011;29527;55.766;37.570;2022-12-29T05:05:53;9.55;;;2.35;;
37791;SDS011;29527;55.766;37.570;2022-12-29T05:08:20;7.50;;;2.13;;
37791;SDS011;29527;55.766;37.570;2022-12-29T05:10:46;5.30;;;2.38;;
37791;SDS011;29527;55.766;37.570;2022-12-29T05:13:11;6.55;;;2.65;;
37791;SDS011;29527;55.766;37.570;2022-12-29T05:15:37;11.18;;;2.58;;
37791;SDS011;29527;55.766;37.570;2022-12-29T05:18:17;7.93;;;2.83;;
37791;SDS011;29527;55.766;37.570;2022-12-29T05:20:43;7.63;;;3.13;;
37791;SDS011;29527;55.766;37.570;2022-12-29T05:23:09;5.45;;;2.53;;
37791;SDS011;29527;55.766;37.570;2022-12-29T05:25:34;6.80;;;2.55;;
37791;SDS011;29527;55.766;37.570;2022-12-29T05:28:00;5.07;;;2.40;;
37791;SDS011;29527;55.766;37.570;2022-12-29T05:30:25;9.32;;;2.80;;
37791;SDS011;29527;55.766;37.570;2022-12-29T05:32:51;9.65;;;2.60;;
37791;SDS011;29527;55.766;37.570;2022-12-29T05:35:16;10.25;;;2.78;;
37791;SDS011;29527;55.766;37.570;2022-12-29T05:37:42;5.78;;;2.13;;
37791;SDS011;29527;55.766;37.570;2022-12-29T05:40:07;9.15;;;2.42;;
37791;SDS011;29527;55.766;37.570;2022-12-29T05:42:33;8.57;;;2.40;;
37791;SDS011;29527;55.766;37.570;2022-12-29T05:44:58;7.38;;;2.97;;
37791;SDS011;29527;55.766;37.570;2022-12-29T05:47:24;10.15;;;3.10;;
37791;SDS011;29527;55.766;37.570;2022-12-29T05:49:49;7.95;;;3.08;;
37791;SDS011;29527;55.766;37.570;2022-12-29T05:55:10;7.20;;;3.00;;
37791;SDS011;29527;55.766;37.570;2022-12-29T05:57:36;7.57;;;2.90;;
37791;SDS011;29527;55.766;37.570;2022-12-29T06:00:02;10.20;;;3.13;;
37791;SDS011;29527;55.766;37.570;2022-12-29T06:02:29;7.50;;;2.97;;
37791;SDS011;29527;55.766;37.570;2022-12-29T06:04:55;9.10;;;2.92;;
37791;SDS011;29527;55.766;37.570;2022-12-29T06:07:20;8.43;;;3.10;;
37791;SDS011;29527;55.766;37.570;2022-12-29T06:09:46;12.13;;;3.30;;
37791;SDS011;29527;55.766;37.570;2022-12-29T06:12:11;8.13;;;3.40;;
37791;SDS011;29527;55.766;37.570;2022-12-29T06:14:37;9.70;;;3.40;;
37791;SDS011;29527;55.766;37.570;2022-12-29T06:17:02;7.07;;;3.40;;
37791;SDS011;29527;55.766;37.570;2022-12-29T06:19:28;7.38;;;3.65;;
37791;SDS011;29527;55.766;37.570;2022-12-29T06:21:53;8.32;;;3.25;;
37791;SDS011;29527;55.766;37.570;2022-12-29T06:24:20;15.90;;;3.60;;
37791;SDS011;29527;55.766;37.570;2022-12-29T06:26:45;11.80;;;3.25;;
37791;SDS011;29527;55.766;37.570;2022-12-29T06:29:11;7.38;;;3.67;;
37791;SDS011;29527;55.766;37.570;2022-12-29T06:31:38;7.18;;;3.03;;
37791;SDS011;29527;55.766;37.570;2022-12-29T06:34:04;8.98;;;3.50;;
37791;SDS011;29527;55.766;37.570;2022-12-29T06:36:29;8.20;;;3.20;;
37791;SDS011;29527;55.766;37.570;2022-12-29T06:38:55;10.00;;;3.50;;
37791;SDS011;29527;55.766;37.570;2022-12-29T06:41:20;10.60;;;3.00;;
37791;SDS011;29527;55.766;37.570;2022-12-29T06:43:46;7.85;;;3.15;;
37791;SDS011;29527;55.766;37.570;2022-12-29T06:46:11;9.00;;;3.33;;
37791;SDS011;29527;55.766;37.570;2022-12-29T06:48:37;7.40;;;3.20;;
37791;SDS011;29527;55.766;37.570;2022-12-29T06:51:02;9.45;;;3.05;;
37791;SDS011;29527;55.766;37.570;2022-12-29T06:53:28;8.65;;;2.97;;
37791;SDS011;29527;55.766;37.570;2022-12-29T06:55:53;8.38;;;3.03;;
37791;SDS011;29527;55.766;37.570;2022-12-29T06:58:19;8.93;;;2.70;;
37791;SDS011;29527;55.766;37.570;2022-12-29T07:00:45;8.05;;;2.72;;
37791;SDS011;29527;55.766;37.570;2022-12-29T07:03:10;8.18;;;2.85;;
37791;SDS011;29527;55.766;37.570;2022-12-29T07:05:36;8.18;;;2.72;;
37791;SDS011;29527;55.766;37.570;2022-12-29T07:08:01;6.13;;;2.63;;
37791;SDS011;29527;55.766;37.570;2022-12-29T07:10:27;10.13;;;3.20;;
37791;SDS011;29527;55.766;37.570;2022-12-29T07:12:53;10.20;;;3.17;;
37791;SDS011;29527;55.766;37.570;2022-12-29T07:15:18;10.18;;;3.08;;
37791;SDS011;29527;55.766;37.570;2022-12-29T07:17:44;12.38;;;3.08;;
37791;SDS011;29527;55.766;37.570;2022-12-29T07:20:09;9.57;;;3.17;;
37791;SDS011;29527;55.766;37.570;2022-12-29T07:22:35;6.75;;;2.70;;
37791;SDS011;29527;55.766;37.570;2022-12-29T07:25:01;7.80;;;2.83;;
37791;SDS011;29527;55.766;37.570;2022-12-29T07:27:29;5.57;;;2.60;;
37791;SDS011;29527;55.766;37.570;2022-12-29T07:29:54;4.80;;;2.25;;
37791;SDS011;29527;55.766;37.570;2022-12-29T07:32:20;11.00;;;2.78;;
37791;SDS011;29527;55.766;37.570;2022-12-29T07:34:45;8.73;;;3.08;;
37791;SDS011;29527;55.766;37.570;2022-12-29T07:37:12;10.45;;;3.03;;
37791;SDS011;29527;55.766;37.570;2022-12-29T07:39:40;15.60;;;3.25;;
37791;SDS011;29527;55.766;37.570;2022-12-29T07:42:05;9.43;;;3.90;;
37791;SDS011;29527;55.766;37.570;2022-12-29T07:44:31;6.82;;;3.22;;
37791;SDS011;29527;55.766;37.570;2022-12-29T07:46:56;9.63;;;3.45;;
37791;SDS011;29527;55.766;37.570;2022-12-29T07:49:22;13.13;;;3.90;;
37791;SDS011;29527;55.766;37.570;2022-12-29T07:51:47;12.48;;;4.28;;
37791;SDS011;29527;55.766;37.570;2022-12-29T07:54:13;14.93;;;5.07;;
37791;SDS011;29527;55.766;37.570;2022-12-29T07:56:39;10.13;;;4.30;;
37791;SDS011;29527;55.766;37.570;2022-12-29T07:59:04;9.05;;;4.32;;
37791;SDS011;29527;55.766;37.570;2022-12-29T08:01:30;8.07;;;4.25;;
37791;SDS011;29527;55.766;37.570;2022-12-29T08:03:55;10.80;;;4.53;;
37791;SDS011;29527;55.766;37.570;2022-12-29T08:06:21;11.73;;;3.90;;
37791;SDS011;29527;55.766;37.570;2022-12-29T08:08:47;13.43;;;4.65;;
37791;SDS011;29527;55.766;37.570;2022-12-29T08:11:13;12.52;;;4.72;;
37791;SDS011;29527;55.766;37.570;2022-12-29T08:13:38;13.88;;;4.72;;
37791;SDS011;29527;55.766;37.570;2022-12-29T08:16:04;11.55;;;4.30;;
37791;SDS011;29527;55.766;37.570;2022-12-29T08:18:29;8.40;;;4.18;;
37791;SDS011;29527;55.766;37.570;2022-12-29T08:20:55;10.75;;;4.22;;
37791;SDS011;29527;55.766;37.570;2022-12-29T08:23:20;7.70;;;4.25;;
37791;SDS011;29527;55.766;37.570;2022-12-29T08:25:46;10.43;;;4.78;;
37791;SDS011;29527;55.766;37.570;2022-12-29T08:28:11;16.63;;;5.47;;
37791;SDS011;29527;55.766;37.570;2022-12-29T08:30:38;17.92;;;6.80;;
37791;SDS011;29527;55.766;37.570;2022-12-29T08:33:03;16.27;;;7.38;;
37791;SDS011;29527;55.766;37.570;2022-12-29T08:35:29;13.30;;;5.93;;
37791;SDS011;29527;55.766;37.570;2022-12-29T08:37:54;14.07;;;6.68;;
37791;SDS011;29527;55.766;37.570;2022-12-29T08:40:20;14.00;;;7.25;;
37791;SDS011;29527;55.766;37.570;2022-12-29T08:42:45;15.20;;;7.55;;
37791;SDS011;29527;55.766;37.570;2022-12-29T08:45:10;14.98;;;6.63;;
37791;SDS011;29527;55.766;37.570;2022-12-29T08:47:36;13.13;;;6.70;;
37791;SDS011;29527;55.766;37.570;2022-12-29T08:50:01;14.20;;;6.05;;
37791;SDS011;29527;55.766;37.570;2022-12-29T08:52:28;15.75;;;5.82;;
37791;SDS011;29527;55.766;37.570;2022-12-29T08:54:53;14.65;;;6.93;;
37791;SDS011;29527;55.766;37.570;2022-12-29T08:57:19;17.95;;;7.95;;
37791;SDS011;29527;55.766;37.570;2022-12-29T08:59:44;14.75;;;6.03;;
37791;SDS011;29527;55.766;37.570;2022-12-29T09:02:10;15.70;;;6.18;;
37791;SDS011;29527;55.766;37.570;2022-12-29T09:04:36;12.45;;;6.20;;
37791;SDS011;29527;55.766;37.570;2022-12-29T09:07:01;10.73;;;6.00;;
37791;SDS011;29527;55.766;37.570;2022-12-29T09:09:27;11.95;;;6.72;;
37791;SDS011;29527;55.766;37.570;2022-12-29T09:11:52;15.80;;;7.20;;
37791;SDS011;29527;55.766;37.570;2022-12-29T09:14:18;16.38;;;7.07;;
37791;SDS011;29527;55.766;37.570;2022-12-29T09:16:44;16.23;;;7.90;;
37791;SDS011;29527;55.766;37.570;2022-12-29T09:19:27;12.23;;;8.00;;
37791;SDS011;29527;55.766;37.570;2022-12-29T09:21:53;14.98;;;8.20;;
37791;SDS011;29527;55.766;37.570;2022-12-29T09:24:20;16.88;;;9.50;;
37791;SDS011;29527;55.766;37.570;2022-12-29T09:26:45;18.38;;;8.82;;
37791;SDS011;29527;55.766;37.570;2022-12-29T09:29:10;17.38;;;9.82;;
37791;SDS011;29527;55.766;37.570;2022-12-29T09:31:36;17.38;;;10.20;;
37791;SDS011;29527;55.766;37.570;2022-12-29T09:34:01;20.73;;;11.65;;
37791;SDS011;29527;55.766;37.570;2022-12-29T09:36:27;19.48;;;10.23;;
37791;SDS011;29527;55.766;37.570;2022-12-29T09:38:53;17.88;;;11.07;;
37791;SDS011;29527;55.766;37.570;2022-12-29T09:44:38;20.70;;;9.40;;
37791;SDS011;29527;55.766;37.570;2022-12-29T09:47:14;17.05;;;10.32;;
37791;SDS011;29527;55.766;37.570;2022-12-29T09:49:47;18.27;;;9.30;;
37791;SDS011;29527;55.766;37.570;2022-12-29T09:52:28;21.10;;;10.00;;
37791;SDS011;29527;55.766;37.570;2022-12-29T09:54:58;19.25;;;9.85;;
37791;SDS011;29527;55.766;37.570;2022-12-29T09:57:33;16.90;;;8.52;;
37791;SDS011;29527;55.766;37.570;2022-12-29T10:00:28;13.98;;;8.10;;
37791;SDS011;29527;55.766;37.570;2022-12-29T10:02:59;11.98;;;7.95;;
37791;SDS011;29527;55.766;37.570;2022-12-29T10:05:38;15.15;;;7.30;;
37791;SDS011;29527;55.766;37.570;2022-12-29T10:08:26;14.38;;;7.65;;
37791;SDS011;29527;55.766;37.570;2022-12-29T10:11:19;12.82;;;7.78;;
37791;SDS011;29527;55.766;37.570;2022-12-29T10:16:26;17.35;;;8.50;;
37791;SDS011;29527;55.766;37.570;2022-12-29T10:24:38;21.33;;;8.00;;
37791;SDS011;29527;55.766;37.570;2022-12-29T10:27:05;13.35;;;7.55;;
37791;SDS011;29527;55.766;37.570;2022-12-29T10:29:44;15.82;;;8.27;;
37791;SDS011;29527;55.766;37.570;2022-12-29T10:35:11;16.42;;;7.50;;
37791;SDS011;29527;55.766;37.570;2022-12-29T10:38:01;15.95;;;7.22;;
37791;SDS011;29527;55.766;37.570;2022-12-29T10:40:38;14.20;;;7.55;;
37791;SDS011;29527;55.766;37.570;2022-12-29T10:43:15;16.73;;;8.15;;
37791;SDS011;29527;55.766;37.570;2022-12-29T10:45:43;14.00;;;8.27;;
37791;SDS011;29527;55.766;37.570;2022-12-29T10:48:11;17.30;;;7.88;;
37791;SDS011;29527;55.766;37.570;2022-12-29T10:50:46;18.92;;;8.73;;
37791;SDS011;29527;55.766;37.570;2022-12-29T10:53:16;18.98;;;9.48;;
37791;SDS011;29527;55.766;37.570;2022-12-29T10:55:46;20.10;;;9.25;;
37791;SDS011;29527;55.766;37.570;2022-12-29T10:58:13;15.60;;;9.20;;
37791;SDS011;29527;55.766;37.570;2022-12-29T11:00:39;18.08;;;9.52;;
37791;SDS011;29527;55.766;37.570;2022-12-29T11:06:10;18.90;;;8.52;;
37791;SDS011;29527;55.766;37.570;2022-12-29T11:09:31;19.48;;;11.30;;
37791;SDS011;29527;55.766;37.570;2022-12-29T11:11:46;18.15;;;9.77;;
37791;SDS011;29527;55.766;37.570;2022-12-29T11:14:18;17.35;;;9.98;;
37791;SDS011;29527;55.766;37.570;2022-12-29T11:16:56;18.92;;;10.10;;
37791;SDS011;29527;55.766;37.570;2022-12-29T11:19:26;18.05;;;9.73;;
37791;SDS011;29527;55.766;37.570;2022-12-29T11:21:53;17.40;;;8.90;;
37791;SDS011;29527;55.766;37.570;2022-12-29T11:26:44;15.45;;;8.02;;
37791;SDS011;29527;55.766;37.570;2022-12-29T11:31:48;15.05;;;8.02;;
37791;SDS011;29527;55.766;37.570;2022-12-29T11:34:26;13.77;;;8.35;;
37791;SDS011;29527;55.766;37.570;2022-12-29T11:37:43;16.75;;;7.93;;
37791;SDS011;29527;55.766;37.570;2022-12-29T11:42:35;13.48;;;7.50;;
37791;SDS011;29527;55.766;37.570;2022-12-29T11:45:23;22.67;;;8.82;;
37791;SDS011;29527;55.766;37.570;2022-12-29T11:47:52;17.50;;;9.63;;
37791;SDS011;29527;55.766;37.570;2022-12-29T11:50:24;17.02;;;8.85;;
37791;SDS011;29527;55.766;37.570;2022-12-29T11:52:57;17.40;;;9.07;;
37791;SDS011;29527;55.766;37.570;2022-12-29T11:55:25;16.60;;;8.77;;
37791;SDS011;29527;55.766;37.570;2022-12-29T11:57:52;18.50;;;8.63;;
37791;SDS011;29527;55.766;37.570;2022-12-29T12:00:23;16.77;;;9.30;;
37791;SDS011;29527;55.766;37.570;2022-12-29T12:05:47;14.98;;;8.35;;
37791;SDS011;29527;55.766;37.570;2022-12-29T12:11:03;14.77;;;8.50;;
37791;SDS011;29527;55.766;37.570;2022-12-29T12:16:16;16.88;;;7.85;;
37791;SDS011;29527;55.766;37.570;2022-12-29T12:18:50;14.05;;;7.80;;
37791;SDS011;29527;55.766;37.570;2022-12-29T12:27:12;13.25;;;8.00;;
37791;SDS011;29527;55.766;37.570;2022-12-29T12:29:52;13.68;;;7.43;;
37791;SDS011;29527;55.766;37.570;2022-12-29T12:32:34;15.48;;;8.30;;
37791;SDS011;29527;55.766;37.570;2022-12-29T12:35:13;19.02;;;9.02;;
37791;SDS011;29527;55.766;37.570;2022-12-29T12:53:49;16.73;;;8.27;;
37791;SDS011;29527;55.766;37.570;2022-12-29T12:59:30;16.15;;;8.63;;
37791;SDS011;29527;55.766;37.570;2022-12-29T13:04:59;15.70;;;9.05;;
37791;SDS011;29527;55.766;37.570;2022-12-29T13:07:39;21.67;;;9.30;;
37791;SDS011;29527;55.766;37.570;2022-12-29T13:16:01;16.55;;;9.00;;
37791;SDS011;29527;55.766;37.570;2022-12-29T13:18:39;15.93;;;8.90;;
37791;SDS011;29527;55.766;37.570;2022-12-29T13:24:11;19.52;;;9.02;;
37791;SDS011;29527;55.766;37.570;2022-12-29T13:29:36;16.80;;;8.52;;
37791;SDS011;29527;55.766;37.570;2022-12-29T13:35:05;14.80;;;7.95;;
37791;SDS011;29527;55.766;37.570;2022-12-29T13:37:49;19.13;;;9.82;;
37791;SDS011;29527;55.766;37.570;2022-12-29T13:40:21;16.60;;;9.45;;
37791;SDS011;29527;55.766;37.570;2022-12-29T13:42:51;16.60;;;9.02;;
37791;SDS011;29527;55.766;37.570;2022-12-29T13:45:19;15.30;;;8.85;;
37791;SDS011;29527;55.766;37.570;2022-12-29T13:50:38;18.27;;;9.35;;
37791;SDS011;29527;55.766;37.570;2022-12-29T14:01:20;16.08;;;9.43;;
37791;SDS011;29527;55.766;37.570;2022-12-29T14:03:52;20.45;;;11.15;;
37791;SDS011;29527;55.766;37.570;2022-12-29T14:06:24;17.25;;;10.48;;
37791;SDS011;29527;55.766;37.570;2022-12-29T14:08:56;22.45;;;11.25;;
37791;SDS011;29527;55.766;37.570;2022-12-29T14:11:29;27.98;;;12.80;;
37791;SDS011;29527;55.766;37.570;2022-12-29T14:13:57;22.65;;;12.40;;
37791;SDS011;29527;55.766;37.570;2022-12-29T14:16:27;23.60;;;12.10;;
37791;SDS011;29527;55.766;37.570;2022-12-29T14:19:03;21.25;;;11.63;;
37791;SDS011;29527;55.766;37.570;2022-12-29T14:21:31;27.73;;;12.57;;
37791;SDS011;29527;55.766;37.570;2022-12-29T14:27:40;23.27;;;11.85;;
37791;SDS011;29527;55.766;37.570;2022-12-29T14:29:49;22.48;;;11.30;;
37791;SDS011;29527;55.766;37.570;2022-12-29T14:34:51;20.88;;;10.75;;
37791;SDS011;29527;55.766;37.570;2022-12-29T14:37:25;20.08;;;10.07;;
37791;SDS011;29527;55.766;37.570;2022-12-29T14:40:36;16.70;;;9.52;;
37791;SDS011;29527;55.766;37.570;2022-12-29T14:42:48;17.70;;;9.23;;
37791;SDS011;29527;55.766;37.570;2022-12-29T14:47:45;17.77;;;9.20;;
37791;SDS011;29527;55.766;37.570;2022-12-29T14:50:25;24.58;;;10.73;;
37791;SDS011;29527;55.766;37.570;2022-12-29T14:53:04;21.15;;;10.95;;
37791;SDS011;29527;55.766;37.570;2022-12-29T14:55:35;18.48;;;10.48;;
37791;SDS011;29527;55.766;37.570;2022-12-29T14:58:02;22.55;;;11.02;;
37791;SDS011;29527;55.766;37.570;2022-12-29T15:00:31;23.45;;;11.38;;
37791;SDS011;29527;55.766;37.570;2022-12-29T15:05:54;22.75;;;11.88;;
37791;SDS011;29527;55.766;37.570;2022-12-29T15:08:25;25.73;;;13.20;;
37791;SDS011;29527;55.766;37.570;2022-12-29T15:10:57;29.85;;;13.15;;
37791;SDS011;29527;55.766;37.570;2022-12-29T15:13:33;28.02;;;12.88;;
37791;SDS011;29527;55.766;37.570;2022-12-29T15:16:02;22.73;;;11.80;;
37791;SDS011;29527;55.766;37.570;2022-12-29T15:18:30;28.48;;;14.10;;
37791;SDS011;29527;55.766;37.570;2022-12-29T15:21:01;25.17;;;14.20;;
37791;SDS011;29527;55.766;37.570;2022-12-29T15:23:29;28.80;;;14.40;;
37791;SDS011;29527;55.766;37.570;2022-12-29T15:26:04;29.02;;;13.75;;
37791;SDS011;29527;55.766;37.570;2022-12-29T15:31:12;24.88;;;13.18;;
37791;SDS011;29527;55.766;37.570;2022-12-29T15:33:39;27.02;;;12.68;;
37791;SDS011;29527;55.766;37.570;2022-12-29T15:36:10;25.33;;;12.77;;
37791;SDS011;29527;55.766;37.570;2022-12-29T15:38:37;30.05;;;13.77;;
37791;SDS011;29527;55.766;37.570;2022-12-29T15:41:11;28.67;;;13.85;;
37791;SDS011;29527;55.766;37.570;2022-12-29T15:44:04;33.05;;;15.23;;
37791;SDS011;29527;55.766;37.570;2022-12-29T15:46:37;29.40;;;14.52;;
37791;SDS011;29527;55.766;37.570;2022-12-29T15:49:07;30.27;;;15.38;;
37791;SDS011;29527;55.766;37.570;2022-12-29T15:51:35;32.20;;;15.40;;
37791;SDS011;29527;55.766;37.570;2022-12-29T15:54:03;28.40;;;15.93;;
37791;SDS011;29527;55.766;37.570;2022-12-29T15:56:30;31.75;;;14.77;;
37791;SDS011;29527;55.766;37.570;2022-12-29T15:58:57;42.58;;;16.42;;
37791;SDS011;29527;55.766;37.570;2022-12-29T16:01:28;32.38;;;16.15;;
37791;SDS011;29527;55.766;37.570;2022-12-29T16:04:00;33.58;;;16.23;;
37791;SDS011;29527;55.766;37.570;2022-12-29T16:06:33;33.97;;;16.08;;
37791;SDS011;29527;55.766;37.570;2022-12-29T16:09:02;36.53;;;16.02;;
37791;SDS011;29527;55.766;37.570;2022-12-29T16:11:33;33.63;;;15.85;;
37791;SDS011;29527;55.766;37.570;2022-12-29T16:14:02;38.85;;;16.80;;
37791;SDS011;29527;55.766;37.570;2022-12-29T16:16:35;35.30;;;15.35;;
37791;SDS011;29527;55.766;37.570;2022-12-29T16:19:10;38.33;;;16.17;;
37791;SDS011;29527;55.766;37.570;2022-12-29T16:21:39;35.70;;;16.33;;
37791;SDS011;29527;55.766;37.570;2022-12-29T16:24:07;35.45;;;16.73;;
37791;SDS011;29527;55.766;37.570;2022-12-29T16:26:38;35.55;;;17.13;;
37791;SDS011;29527;55.766;37.570;2022-12-29T16:29:05;37.50;;;18.52;;
37791;SDS011;29527;55.766;37.570;2022-12-29T16:31:36;38.63;;;17.38;;
37791;SDS011;29527;55.766;37.570;2022-12-29T16:34:24;40.83;;;17.88;;
37791;SDS011;29527;55.766;37.570;2022-12-29T16:39:54;40.95;;;19.95;;
37791;SDS011;29527;55.766;37.570;2022-12-29T16:42:36;46.63;;;18.58;;
37791;SDS011;29527;55.766;37.570;2022-12-29T16:50:30;55.13;;;21.00;;
37791;SDS011;29527;55.766;37.570;2022-12-29T16:52:57;48.30;;;20.67;;
37791;SDS011;29527;55.766;37.570;2022-12-29T16:55:23;49.90;;;20.83;;
37791;SDS011;29527;55.766;37.570;2022-12-29T16:57:50;50.50;;;22.30;;
37791;SDS011;29527;55.766;37.570;2022-12-29T17:00:22;51.40;;;23.05;;
37791;SDS011;29527;55.766;37.570;2022-12-29T17:02:50;50.75;;;22.60;;
37791;SDS011;29527;55.766;37.570;2022-12-29T17:05:19;58.97;;;23.83;;
37791;SDS011;29527;55.766;37.570;2022-12-29T17:07:45;49.95;;;21.08;;
37791;SDS011;29527;55.766;37.570;2022-12-29T17:10:11;55.03;;;21.33;;
37791;SDS011;29527;55.766;37.570;2022-12-29T17:12:39;52.72;;;21.05;;
37791;SDS011;29527;55.766;37.570;2022-12-29T17:15:07;51.30;;;20.17;;
37791;SDS011;29527;55.766;37.570;2022-12-29T17:17:39;56.78;;;21.77;;